Sterling, MI (48659)

1:37 PM EDT on September 03, 2015 (GMT -0400)
MesoWest | | Change Station
CLOSE
Current Station
Personal Weather Station
Location: West Branch, MI
Elevation: 977 ft
Nearby Weather Stations

Elev 977 ft 44.25 °N, 84.23 °W | Updated 37 minutes ago

Rain
Rain
66 °F
Feels Like 66 °F
N
5
Wind Variable Wind from SSE
Gusts 8.0 mph

Today
High -- | Low -- °F
--% Chance of Precip.
Yesterday
High -- | Low -- °F
Precip. -- in
7:01 AM 8:08 PM
Waning Gibbous, 68% visible
Pressure 29.93 in
Visibility 2.0 miles
Clouds Scattered Clouds 2000 ft
Mostly Cloudy 3000 ft
Overcast 4600 ft
Dew Point 66 °F
Humidity 99%
Rainfall in
Snow Depth Not available.
UV 3 out of 12
Pollen 9.70 out of 12
Air Quality Not available.
Flu Activity Not available.
METAR KIKW 031732Z AUTO 12006KT 2SM RA SCT020 BKN030 OVC046 20/19 A2993 RMK AO2 VIS 1 1/4V5 P0028 T01950186
Pressure 29.93 in
Visibility 2.0 miles
Clouds Scattered Clouds 2000 ft
Mostly Cloudy 3000 ft
Overcast 4600 ft
Dew Point 66 °F
Humidity 99%
Rainfall in
Snow Depth Not available.
UV 3 out of 12
Pollen 9.70 out of 12
Air Quality Not available.
Flu Activity Not available.
METAR KIKW 031732Z AUTO 12006KT 2SM RA SCT020 BKN030 OVC046 20/19 A2993 RMK AO2 VIS 1 1/4V5 P0028 T01950186
Nowcast | as of 1:00 PM EDT on September 3, 2015

At 2 PM...numerous showers and chance of thunderstorms. Temperature 75. South winds 5 mph. At 4 PM...mostly cloudy. Scattered showers and chance of thunderstorms. Temperature 75. Southeast winds 8 mph. At 6 PM...numerous showers and chance of thunderstorms. Temperature 75. Southeast winds 8 mph. At 8 PM...mostly cloudy. Chance of thunderstorms. Temperature 72. East winds 7 mph.

×

10-Day Weather Forecast

×

Almanac

Astronomy

Sep. 03, 2015 Rise Set
Actual Time
Civil Twilight
Nautical Twilight
Astronomical Twilight
Moon
Length of Visible Light
Length of Day
Tomorrow will be .
, % of the Moon is Illuminated

Today's Extremes

State Highs State Lows

Community

WunderPhotos

Upload Photos

1,851,991 photos uploaded!

WunderBlogs® & News

Nearby

Air Quality

  Air Quality AQ Index Pollutant
Not available.

Snow Depth

Station Depth Elevation

Earthquake Activity

City Distance Mag. Time & Date
Minimum magnitude displayed is 2.5.

Coastal Water Temperatures

Place Temperature

Stations

Nearby Weather Stations

Station Location Temp. Windchill Dew Point Humidity Wind Precip. Elev Updated Type